createdAt,value
2022-07-29T00:00:58.222Z,16.92
2022-07-29T00:03:25.213Z,17.15
2022-07-29T00:05:53.986Z,16.35
2022-07-29T00:08:21.096Z,16.48
2022-07-29T00:10:48.045Z,15.75
2022-07-29T00:13:15.087Z,17.13
2022-07-29T00:15:42.058Z,16.40
2022-07-29T00:18:08.807Z,19.35
2022-07-29T00:20:35.598Z,17.15
2022-07-29T00:23:02.615Z,19.08
2022-07-29T00:25:29.385Z,18.17
2022-07-29T00:27:56.189Z,18.38
2022-07-29T00:30:23.345Z,20.33
2022-07-29T00:32:50.123Z,18.13
2022-07-29T00:35:35.217Z,19.58
2022-07-29T00:38:02.185Z,18.52
2022-07-29T00:40:29.032Z,18.25
2022-07-29T00:42:55.908Z,18.42
2022-07-29T00:45:23.216Z,18.52
2022-07-29T00:47:50.390Z,19.83
2022-07-29T00:50:17.880Z,18.90
2022-07-29T00:52:44.789Z,17.67
2022-07-29T00:55:16.846Z,19.20
2022-07-29T00:57:45.373Z,18.52
2022-07-29T01:00:24.842Z,18.20
2022-07-29T01:02:52.180Z,18.85
2022-07-29T01:05:21.059Z,18.40
2022-07-29T01:07:50.352Z,19.67
2022-07-29T01:10:19.304Z,19.80
2022-07-29T01:12:48.870Z,18.30
2022-07-29T01:15:15.994Z,18.73
2022-07-29T01:17:53.412Z,18.13
2022-07-29T01:20:45.755Z,17.63
2022-07-29T01:23:34.459Z,19.58
2022-07-29T01:26:34.115Z,19.60
2022-07-29T01:29:08.371Z,18.58
2022-07-29T01:34:46.901Z,16.77
2022-07-29T01:37:41.593Z,17.77
2022-07-29T01:40:25.361Z,17.85
2022-07-29T01:42:59.834Z,17.77
2022-07-29T01:48:22.411Z,16.30
2022-07-29T01:50:59.495Z,13.45
2022-07-29T01:53:37.675Z,14.85
2022-07-29T01:56:05.881Z,14.55
2022-07-29T01:58:34.124Z,12.98
2022-07-29T02:01:01.470Z,13.88
2022-07-29T02:03:30.273Z,14.52
2022-07-29T02:05:58.375Z,14.98
2022-07-29T02:08:27.131Z,12.98
2022-07-29T02:10:54.499Z,12.98
2022-07-29T02:13:24.052Z,12.38
2022-07-29T02:15:52.686Z,10.80
2022-07-29T02:18:21.672Z,10.10
2022-07-29T02:20:51.496Z,8.13
2022-07-29T02:23:24.069Z,9.10
2022-07-29T02:25:54.377Z,9.10
2022-07-29T02:28:25.292Z,9.38
2022-07-29T02:30:54.473Z,9.98
2022-07-29T02:33:22.556Z,9.23
2022-07-29T02:35:51.565Z,9.57
2022-07-29T02:38:38.691Z,9.80
2022-07-29T02:41:12.499Z,9.02
2022-07-29T02:43:40.375Z,9.50
2022-07-29T02:46:12.733Z,9.48
2022-07-29T02:49:32.655Z,9.80
2022-07-29T02:52:03.522Z,9.77
2022-07-29T02:54:57.792Z,9.93
2022-07-29T02:57:35.245Z,9.77
2022-07-29T03:00:25.169Z,9.25
2022-07-29T03:02:55.398Z,8.57
2022-07-29T03:05:23.473Z,8.52
2022-07-29T03:08:03.899Z,8.32
2022-07-29T03:10:32.454Z,8.15
2022-07-29T03:13:00.750Z,8.48
2022-07-29T03:15:28.493Z,7.72
2022-07-29T03:17:56.658Z,8.20
2022-07-29T03:20:24.199Z,7.03
2022-07-29T03:22:51.817Z,6.20
2022-07-29T03:25:20.956Z,6.80
2022-07-29T03:27:48.914Z,6.70
2022-07-29T03:30:21.690Z,6.95
2022-07-29T03:32:52.183Z,7.32
2022-07-29T03:35:22.287Z,6.45
2022-07-29T03:37:49.476Z,7.07
2022-07-29T03:40:22.969Z,7.00
2022-07-29T03:42:51.990Z,5.72
2022-07-29T03:45:20.583Z,4.20
2022-07-29T03:47:57.031Z,5.43
2022-07-29T03:50:27.127Z,5.13
2022-07-29T03:52:53.964Z,5.50
2022-07-29T03:55:20.934Z,5.30
2022-07-29T03:57:49.204Z,4.00
2022-07-29T04:00:16.964Z,4.82
2022-07-29T04:02:49.468Z,4.53
2022-07-29T04:05:17.241Z,4.70
2022-07-29T04:07:50.493Z,4.75
2022-07-29T04:10:30.236Z,3.97
2022-07-29T04:12:59.558Z,3.40
2022-07-29T04:15:26.909Z,3.20
2022-07-29T04:17:58.995Z,3.90
2022-07-29T04:20:25.741Z,3.47
2022-07-29T04:22:52.462Z,4.38
2022-07-29T04:25:19.186Z,4.15
2022-07-29T04:28:04.249Z,4.38
2022-07-29T04:30:32.415Z,4.78
2022-07-29T04:32:59.648Z,4.03
2022-07-29T04:35:26.922Z,4.28
2022-07-29T04:37:53.854Z,4.40
2022-07-29T04:40:21.088Z,4.40
2022-07-29T04:42:48.067Z,4.25
2022-07-29T04:45:16.582Z,4.38
2022-07-29T04:47:49.197Z,4.80
2022-07-29T04:50:16.066Z,4.07
2022-07-29T04:52:42.765Z,4.20
2022-07-29T04:55:09.976Z,4.43
2022-07-29T04:57:36.716Z,5.13
2022-07-29T05:00:05.755Z,4.38
2022-07-29T05:02:32.599Z,4.10
2022-07-29T05:04:59.427Z,4.50
2022-07-29T05:07:26.215Z,3.90
2022-07-29T05:09:54.084Z,4.88
2022-07-29T05:12:20.794Z,4.65
2022-07-29T05:14:47.524Z,4.70
2022-07-29T05:17:14.305Z,4.80
2022-07-29T05:19:41.116Z,3.50
2022-07-29T05:22:07.905Z,3.50
2022-07-29T05:24:34.748Z,3.65
2022-07-29T05:27:01.841Z,3.50
2022-07-29T05:29:43.938Z,3.70
2022-07-29T05:32:13.282Z,3.00
2022-07-29T05:34:50.410Z,2.90
2022-07-29T05:37:20.099Z,3.10
2022-07-29T05:39:50.688Z,3.00
2022-07-29T05:42:24.190Z,3.10
2022-07-29T05:44:50.952Z,2.55
2022-07-29T05:47:17.808Z,2.85
2022-07-29T05:49:44.662Z,2.90
2022-07-29T05:52:11.554Z,2.65
2022-07-29T05:54:38.434Z,3.13
2022-07-29T05:57:06.354Z,2.67
2022-07-29T05:59:38.580Z,3.00
2022-07-29T06:02:06.148Z,2.85
2022-07-29T06:04:34.734Z,2.90
2022-07-29T06:07:02.925Z,2.67
2022-07-29T06:09:30.194Z,2.55
2022-07-29T06:11:57.112Z,2.53
2022-07-29T06:14:23.892Z,2.10
2022-07-29T06:16:50.870Z,2.72
2022-07-29T06:19:17.715Z,2.33
2022-07-29T06:21:45.356Z,2.30
2022-07-29T06:24:13.838Z,2.35
2022-07-29T06:26:41.354Z,2.70
2022-07-29T06:29:09.456Z,2.33
2022-07-29T06:31:36.305Z,2.20
2022-07-29T06:34:03.436Z,2.78
2022-07-29T06:36:30.605Z,2.20
2022-07-29T06:38:57.655Z,2.20
2022-07-29T06:41:24.840Z,2.58
2022-07-29T06:43:55.319Z,2.65
2022-07-29T06:46:24.238Z,2.80
2022-07-29T06:48:52.740Z,2.70
2022-07-29T06:51:23.296Z,2.65
2022-07-29T06:54:00.423Z,2.50
2022-07-29T06:56:31.554Z,2.50
2022-07-29T06:58:59.086Z,2.50
2022-07-29T07:01:30.131Z,2.50
2022-07-29T07:03:57.437Z,2.95
2022-07-29T07:06:24.240Z,3.33
2022-07-29T07:08:51.455Z,3.38
2022-07-29T07:11:18.421Z,3.53
2022-07-29T07:13:45.393Z,3.20
2022-07-29T07:16:12.343Z,3.00
2022-07-29T07:18:39.237Z,2.80
2022-07-29T07:21:06.770Z,2.95
2022-07-29T07:23:33.871Z,2.97
2022-07-29T07:26:03.914Z,2.78
2022-07-29T07:28:30.768Z,3.15
2022-07-29T07:30:57.715Z,3.00
2022-07-29T07:33:27.263Z,2.80
2022-07-29T07:35:55.656Z,3.25
2022-07-29T07:38:22.483Z,2.92
2022-07-29T07:40:49.381Z,3.58
2022-07-29T07:43:16.257Z,2.88
2022-07-29T07:45:43.485Z,2.92
2022-07-29T07:48:11.248Z,3.25
2022-07-29T07:50:38.479Z,3.15
2022-07-29T07:53:05.726Z,3.05
2022-07-29T07:56:00.050Z,2.90
2022-07-29T07:58:35.232Z,3.22
2022-07-29T08:01:03.664Z,2.85
2022-07-29T08:03:42.309Z,2.80
2022-07-29T08:07:11.604Z,2.33
2022-07-29T08:14:15.134Z,2.40
2022-07-29T08:19:22.941Z,2.72
2022-07-29T08:21:51.578Z,2.90
2022-07-29T08:24:37.025Z,2.70
2022-07-29T08:27:03.955Z,3.05
2022-07-29T08:29:30.749Z,3.22
2022-07-29T08:31:57.641Z,2.70
2022-07-29T08:34:27.901Z,2.38
2022-07-29T08:36:55.603Z,2.65
2022-07-29T08:39:22.689Z,2.60
2022-07-29T08:41:57.266Z,2.83
2022-07-29T08:44:29.733Z,3.00
2022-07-29T08:46:57.949Z,3.17
2022-07-29T08:49:24.892Z,3.10
2022-07-29T08:51:52.564Z,3.30
2022-07-29T08:54:20.857Z,3.15
2022-07-29T08:56:50.893Z,2.85
2022-07-29T08:59:22.119Z,3.20
2022-07-29T09:01:52.444Z,2.90
2022-07-29T09:04:21.142Z,3.30
2022-07-29T09:06:52.293Z,2.90
2022-07-29T09:09:19.258Z,3.03
2022-07-29T09:11:52.144Z,2.60
2022-07-29T09:14:19.098Z,2.65
2022-07-29T09:16:57.447Z,2.80
2022-07-29T09:19:27.218Z,2.70
2022-07-29T09:22:03.710Z,3.15
2022-07-29T09:24:48.394Z,2.97
2022-07-29T09:27:27.548Z,3.22
2022-07-29T09:30:01.734Z,3.10
2022-07-29T09:32:29.395Z,3.50
2022-07-29T09:35:18.806Z,3.13
2022-07-29T09:37:46.145Z,3.40
2022-07-29T09:40:18.977Z,3.28
2022-07-29T09:42:46.802Z,3.58
2022-07-29T09:45:26.560Z,3.25
2022-07-29T09:47:53.342Z,3.65
2022-07-29T09:50:24.898Z,3.83
2022-07-29T09:52:54.573Z,3.60
2022-07-29T09:55:21.410Z,3.30
2022-07-29T09:57:48.875Z,3.70
2022-07-29T10:00:19.068Z,3.78
2022-07-29T10:02:47.565Z,3.72
2022-07-29T10:05:36.289Z,4.00
2022-07-29T10:08:04.164Z,3.58
2022-07-29T10:10:34.734Z,3.70
2022-07-29T10:13:15.049Z,3.28
2022-07-29T10:15:46.765Z,3.80
2022-07-29T10:18:15.643Z,4.18
2022-07-29T10:20:42.707Z,3.95
2022-07-29T10:23:10.532Z,4.32
2022-07-29T10:25:37.329Z,3.78
2022-07-29T10:28:06.296Z,3.85
2022-07-29T10:30:33.375Z,3.30
2022-07-29T10:33:26.627Z,2.90
2022-07-29T10:36:05.386Z,3.60
2022-07-29T10:38:56.482Z,3.20
2022-07-29T10:42:01.569Z,3.50
2022-07-29T10:44:30.779Z,3.40
2022-07-29T10:46:58.760Z,3.63
2022-07-29T10:49:30.627Z,3.58
2022-07-29T10:52:08.265Z,3.60
2022-07-29T10:54:43.837Z,3.53
2022-07-29T10:57:17.374Z,3.50
2022-07-29T10:59:53.147Z,3.20
2022-07-29T11:02:42.602Z,3.65
2022-07-29T11:05:19.929Z,3.10
2022-07-29T11:08:20.458Z,3.20
2022-07-29T11:10:51.013Z,2.70
2022-07-29T11:13:49.373Z,2.97
2022-07-29T11:16:17.998Z,2.60
2022-07-29T11:19:13.525Z,2.70
2022-07-29T11:21:54.170Z,2.80
2022-07-29T11:24:32.155Z,2.80
2022-07-29T11:27:11.147Z,2.75
2022-07-29T11:29:53.483Z,3.10
2022-07-29T11:32:22.690Z,2.83
2022-07-29T11:35:17.127Z,3.30
2022-07-29T11:38:08.598Z,3.50
2022-07-29T11:40:38.078Z,3.22
2022-07-29T11:43:09.360Z,3.10
2022-07-29T11:45:48.152Z,3.00
2022-07-29T11:48:31.075Z,3.10
2022-07-29T11:51:00.025Z,3.40
2022-07-29T11:53:29.269Z,3.25
2022-07-29T11:56:16.466Z,3.78
2022-07-29T11:58:44.046Z,3.47
2022-07-29T12:01:17.811Z,3.88
2022-07-29T12:03:45.121Z,3.50
2022-07-29T12:06:18.378Z,3.92
2022-07-29T12:08:48.051Z,3.90
2022-07-29T12:11:21.859Z,3.95
2022-07-29T12:13:50.210Z,3.72
2022-07-29T12:16:29.209Z,3.70
2022-07-29T12:19:02.447Z,3.75
2022-07-29T12:21:59.347Z,3.75
2022-07-29T12:24:27.387Z,3.70
2022-07-29T12:26:57.208Z,3.90
2022-07-29T12:29:33.895Z,4.00
2022-07-29T12:32:02.916Z,3.60
2022-07-29T12:34:30.574Z,4.15
2022-07-29T12:36:57.505Z,3.40
2022-07-29T12:39:27.422Z,3.90
2022-07-29T12:42:03.921Z,3.40
2022-07-29T12:44:52.529Z,2.92
2022-07-29T12:47:20.737Z,3.20
2022-07-29T12:49:48.697Z,2.97
2022-07-29T12:52:33.238Z,2.97
2022-07-29T12:55:00.499Z,2.72
2022-07-29T12:57:27.922Z,2.47
2022-07-29T13:00:04.314Z,2.20
2022-07-29T13:02:31.179Z,2.47
2022-07-29T13:04:59.304Z,2.53
2022-07-29T13:07:54.130Z,2.67
2022-07-29T13:10:17.352Z,2.30
2022-07-29T13:13:03.693Z,1.90
2022-07-29T13:15:30.682Z,2.10
2022-07-29T13:17:57.609Z,2.42
2022-07-29T13:20:32.662Z,2.22
2022-07-29T13:23:01.584Z,2.50
2022-07-29T13:25:32.994Z,2.67
2022-07-29T13:28:00.665Z,2.25
2022-07-29T13:30:27.523Z,2.38
2022-07-29T13:32:54.479Z,2.35
2022-07-29T13:35:21.672Z,2.10
2022-07-29T13:37:49.012Z,2.45
2022-07-29T13:40:18.975Z,2.22
2022-07-29T13:42:45.831Z,2.40
2022-07-29T13:45:13.991Z,2.88
2022-07-29T13:47:43.590Z,2.25
2022-07-29T13:50:14.740Z,2.00
2022-07-29T13:52:41.541Z,2.60
2022-07-29T13:55:09.141Z,2.38
2022-07-29T13:57:36.503Z,2.30
2022-07-29T14:00:03.689Z,2.38
2022-07-29T14:02:30.449Z,2.47
2022-07-29T14:04:57.394Z,2.55
2022-07-29T14:07:24.245Z,2.60
2022-07-29T14:09:51.556Z,2.60
2022-07-29T14:12:18.694Z,2.80
2022-07-29T14:14:47.187Z,2.50
2022-07-29T14:17:14.585Z,2.40
2022-07-29T14:19:41.735Z,2.65
2022-07-29T14:22:09.676Z,2.80
2022-07-29T14:24:37.977Z,2.50
2022-07-29T14:27:09.074Z,2.60
2022-07-29T14:29:38.344Z,3.00
2022-07-29T14:32:09.070Z,2.75
2022-07-29T14:34:37.455Z,2.40
2022-07-29T14:37:06.408Z,2.33
2022-07-29T14:39:36.953Z,2.83
2022-07-29T14:42:06.519Z,2.78
2022-07-29T14:44:33.319Z,2.78
2022-07-29T14:47:01.574Z,2.75
2022-07-29T14:49:35.782Z,1.48
2022-07-29T14:52:02.916Z,1.67
2022-07-29T14:54:29.677Z,1.10
2022-07-29T14:56:58.303Z,1.17
2022-07-29T14:59:26.164Z,1.60
2022-07-29T15:01:53.258Z,1.90
2022-07-29T15:04:20.480Z,1.70
2022-07-29T15:06:47.262Z,1.83
2022-07-29T15:09:14.115Z,2.03
2022-07-29T15:11:40.943Z,1.90
2022-07-29T15:14:07.727Z,2.33
2022-07-29T15:16:37.504Z,2.25
2022-07-29T15:19:05.105Z,2.90
2022-07-29T15:21:32.068Z,2.85
2022-07-29T15:23:58.813Z,3.38
2022-07-29T15:26:25.560Z,3.65
2022-07-29T15:28:52.335Z,3.63
2022-07-29T15:31:19.945Z,3.60
2022-07-29T15:33:46.813Z,3.65
2022-07-29T15:36:35.712Z,4.47
2022-07-29T15:39:00.908Z,4.43
2022-07-29T15:41:27.789Z,3.95
2022-07-29T15:43:54.602Z,3.40
2022-07-29T15:46:39.953Z,3.40
2022-07-29T15:49:07.926Z,3.17
2022-07-29T15:51:35.009Z,3.58
2022-07-29T15:54:03.730Z,3.53
2022-07-29T15:56:30.925Z,3.60
2022-07-29T15:58:58.749Z,3.45
2022-07-29T16:01:25.979Z,3.15
2022-07-29T16:03:53.364Z,4.05
2022-07-29T16:06:20.751Z,3.30
2022-07-29T16:08:47.634Z,3.25
2022-07-29T16:11:14.410Z,3.10
2022-07-29T16:13:41.253Z,3.28
2022-07-29T16:16:08.893Z,3.28
2022-07-29T16:18:36.177Z,3.08
2022-07-29T16:21:03.149Z,2.72
2022-07-29T16:23:30.138Z,3.53
2022-07-29T16:25:59.973Z,3.40
2022-07-29T16:28:28.530Z,3.00
2022-07-29T16:30:55.514Z,3.30
2022-07-29T16:33:22.359Z,2.40
2022-07-29T16:35:49.591Z,2.55
2022-07-29T16:38:16.677Z,2.80
2022-07-29T16:40:44.607Z,2.80
2022-07-29T16:43:11.353Z,2.83
2022-07-29T16:45:46.215Z,3.58
2022-07-29T16:48:14.614Z,3.33
2022-07-29T16:50:43.202Z,2.72
2022-07-29T16:53:10.728Z,2.97
2022-07-29T16:55:37.738Z,3.00
2022-07-29T16:58:04.726Z,2.90
2022-07-29T17:00:31.612Z,3.35
2022-07-29T17:02:59.986Z,3.60
2022-07-29T17:05:28.100Z,3.45
2022-07-29T17:07:55.142Z,3.00
2022-07-29T17:10:22.349Z,2.95
2022-07-29T17:12:49.363Z,3.40
2022-07-29T17:15:18.536Z,2.90
2022-07-29T17:17:54.804Z,2.97
2022-07-29T17:20:22.593Z,3.70
2022-07-29T17:22:49.382Z,3.40
2022-07-29T17:25:20.862Z,3.83
2022-07-29T17:27:50.631Z,3.80
2022-07-29T17:30:17.956Z,3.28
2022-07-29T17:32:44.857Z,3.65
2022-07-29T17:35:40.700Z,3.40
2022-07-29T17:38:07.544Z,3.80
2022-07-29T17:40:34.361Z,3.80
2022-07-29T17:43:01.218Z,3.53
2022-07-29T17:45:48.983Z,3.70
2022-07-29T17:48:14.844Z,4.20
2022-07-29T17:50:41.879Z,4.00
2022-07-29T17:53:12.138Z,4.35
2022-07-29T17:55:46.437Z,4.30
2022-07-29T17:58:13.295Z,4.32
2022-07-29T18:00:40.469Z,4.32
2022-07-29T18:03:07.362Z,4.50
2022-07-29T18:05:34.254Z,4.22
2022-07-29T18:08:01.631Z,4.22
2022-07-29T18:10:28.438Z,4.70
2022-07-29T18:12:55.220Z,4.28
2022-07-29T18:15:21.994Z,4.07
2022-07-29T18:17:57.382Z,4.38
2022-07-29T18:20:25.967Z,4.63
2022-07-29T18:22:53.057Z,4.75
2022-07-29T18:25:19.871Z,4.85
2022-07-29T18:27:46.655Z,5.07
2022-07-29T18:30:15.163Z,5.05
2022-07-29T18:32:54.315Z,5.53
2022-07-29T18:35:29.093Z,4.78
2022-07-29T18:38:00.833Z,4.68
2022-07-29T18:40:30.013Z,4.60
2022-07-29T18:42:57.169Z,5.03
2022-07-29T18:45:28.297Z,4.85
2022-07-29T18:47:56.289Z,5.20
2022-07-29T18:50:28.925Z,4.80
2022-07-29T18:52:58.358Z,5.07
2022-07-29T18:55:25.888Z,5.30
2022-07-29T18:57:55.014Z,5.45
2022-07-29T19:00:24.167Z,5.57
2022-07-29T19:02:51.262Z,5.10
2022-07-29T19:05:18.367Z,5.60
2022-07-29T19:07:45.150Z,5.35
2022-07-29T19:10:12.278Z,5.13
2022-07-29T19:12:39.237Z,5.13
2022-07-29T19:15:07.581Z,5.15
2022-07-29T19:17:34.360Z,5.00
2022-07-29T19:20:01.298Z,5.35
2022-07-29T19:22:28.082Z,5.40
2022-07-29T19:24:54.861Z,4.80
2022-07-29T19:27:21.650Z,5.05
2022-07-29T19:29:48.437Z,4.75
2022-07-29T19:32:24.948Z,4.97
2022-07-29T19:35:10.729Z,6.00
2022-07-29T19:37:37.629Z,6.07
2022-07-29T19:40:05.755Z,5.22
2022-07-29T19:42:32.662Z,5.68
2022-07-29T19:44:59.441Z,5.90
2022-07-29T19:47:26.212Z,5.68
2022-07-29T19:49:52.990Z,5.30
2022-07-29T19:52:19.780Z,6.95
2022-07-29T19:54:46.523Z,6.43
2022-07-29T19:57:13.524Z,5.97
2022-07-29T19:59:41.202Z,6.07
2022-07-29T20:02:11.012Z,5.95
2022-07-29T20:04:38.638Z,5.95
2022-07-29T20:07:06.674Z,5.82
2022-07-29T20:09:33.914Z,6.25
2022-07-29T20:12:00.950Z,6.30
2022-07-29T20:14:27.755Z,6.80
2022-07-29T20:16:54.565Z,6.53
2022-07-29T20:19:21.694Z,6.10
2022-07-29T20:21:48.501Z,6.10
2022-07-29T20:24:15.323Z,6.20
2022-07-29T20:26:42.162Z,6.80
2022-07-29T20:29:09.357Z,6.65
2022-07-29T20:31:36.164Z,7.15
2022-07-29T20:34:03.162Z,7.18
2022-07-29T20:36:30.275Z,7.68
2022-07-29T20:38:59.890Z,7.05
2022-07-29T20:41:27.032Z,7.20
2022-07-29T20:43:53.846Z,6.68
2022-07-29T20:46:20.649Z,6.93
2022-07-29T20:48:47.924Z,6.70
2022-07-29T20:51:14.934Z,7.22
2022-07-29T20:53:42.142Z,6.50
2022-07-29T20:56:09.009Z,7.35
2022-07-29T20:58:36.585Z,7.10
2022-07-29T21:01:04.971Z,6.15
2022-07-29T21:03:32.624Z,6.65
2022-07-29T21:06:00.294Z,5.70
2022-07-29T21:08:27.286Z,6.68
2022-07-29T21:10:54.782Z,6.32
2022-07-29T21:13:23.082Z,5.68
2022-07-29T21:15:51.681Z,6.32
2022-07-29T21:18:39.766Z,6.18
2022-07-29T21:21:06.820Z,6.70
2022-07-29T21:23:33.602Z,6.15
2022-07-29T21:26:00.444Z,6.40
2022-07-29T21:28:27.315Z,6.22
2022-07-29T21:30:55.880Z,6.28
2022-07-29T21:33:23.541Z,6.22
2022-07-29T21:38:38.452Z,6.05
2022-07-29T21:41:05.922Z,5.65
2022-07-29T21:43:32.977Z,6.03
2022-07-29T21:46:00.530Z,6.32
2022-07-29T21:48:28.613Z,6.10
2022-07-29T21:50:56.254Z,6.15
2022-07-29T21:53:24.309Z,6.88
2022-07-29T21:55:55.328Z,6.53
2022-07-29T21:58:23.739Z,5.97
2022-07-29T22:00:50.788Z,6.28
2022-07-29T22:03:17.649Z,6.57
2022-07-29T22:05:44.658Z,6.68
2022-07-29T22:08:11.570Z,6.30
2022-07-29T22:10:38.434Z,6.00
2022-07-29T22:13:05.287Z,6.07
2022-07-29T22:15:32.300Z,5.70
2022-07-29T22:17:59.564Z,5.97
2022-07-29T22:20:26.778Z,5.90
2022-07-29T22:22:53.963Z,6.45
2022-07-29T22:25:21.082Z,6.25
2022-07-29T22:27:48.010Z,6.45
2022-07-29T22:30:15.548Z,6.25
2022-07-29T22:32:42.383Z,6.05
2022-07-29T22:35:10.170Z,5.97
2022-07-29T22:37:37.164Z,6.10
2022-07-29T22:40:04.995Z,5.85
2022-07-29T22:42:31.952Z,5.90
2022-07-29T22:44:58.763Z,6.10
2022-07-29T22:47:46.285Z,5.63
2022-07-29T22:50:12.471Z,6.07
2022-07-29T22:52:39.264Z,5.50
2022-07-29T22:55:06.511Z,6.28
2022-07-29T22:57:33.283Z,6.40
2022-07-29T23:00:02.269Z,5.90
2022-07-29T23:02:29.208Z,5.85
2022-07-29T23:04:56.169Z,6.55
2022-07-29T23:07:23.241Z,6.30
2022-07-29T23:09:50.013Z,6.22
2022-07-29T23:12:16.839Z,6.30
2022-07-29T23:14:44.015Z,6.28
2022-07-29T23:17:10.814Z,6.35
2022-07-29T23:19:37.853Z,6.75
2022-07-29T23:22:05.888Z,6.93
2022-07-29T23:24:32.606Z,6.55
2022-07-29T23:26:59.718Z,6.72
2022-07-29T23:29:26.849Z,6.85
2022-07-29T23:31:53.624Z,7.07
2022-07-29T23:34:20.384Z,6.75
2022-07-29T23:36:47.309Z,7.00
2022-07-29T23:39:14.062Z,7.90
2022-07-29T23:41:41.275Z,7.20
2022-07-29T23:44:08.187Z,7.57
2022-07-29T23:46:35.008Z,7.88
2022-07-29T23:49:01.905Z,7.75
2022-07-29T23:51:29.250Z,7.40
2022-07-29T23:53:56.472Z,8.07
2022-07-29T23:56:23.391Z,7.90
2022-07-29T23:58:50.482Z,7.85
